Latest Weather Observations for Samuel Hill

IDQ60801

Issued at 4:35 pm EST Thursday 28 August 2014 (issued every 30 minutes, with the page automatically refreshed every 10 minutes)

About weather observations | Map of weather stations | Latest weather observations for QLD | Other Formats
Station Details ID: 033308 Name: SAMUEL HILL AERO Lat: -22.74 Lon: 150.66 Height: 31.0 m
Data from the previous 72 hours. | See also: Recent months at Samuel Hill
Date/Time
EST
Temp
°C
App
Temp
°C
Dew
Point
Rel
Hum
%
Delta-T
°C
Wind Press
QNH
hPa
Press
MSL
hPa
Rain
since 9 am
mm
Dir
 
Spd
km/h
Gust
km/h
Spd
kts
Gust
kts
28/04:30pm 23.4 21.5 10.5 44 7.1 ESE 11 17 6 9 1016.3 1016.2 0.0
28/04:00pm 23.9 22.3 8.7 38 8.1 E 7 13 4 7 1015.9 1015.8 0.0
28/03:30pm 24.0 22.1 9.2 39 8.0 ESE 9 15 5 8 1015.8 1015.7 0.0
28/03:00pm 23.6 21.2 8.5 38 8.0 SSE 11 17 6 9 1015.7 1015.6 0.0
28/02:30pm 23.6 21.0 7.7 36 8.4 SE 11 17 6 9 1015.9 1015.8 0.0
28/02:00pm 23.6 20.6 7.7 36 8.3 SW 13 20 7 11 1016.1 1016.0 0.0
28/01:30pm 23.5 21.4 8.4 38 8.0 SSW 9 19 5 10 1016.2 1016.1 0.0
28/01:00pm 22.7 20.2 8.0 39 7.7 SE 11 24 6 13 1016.6 1016.5 0.0
28/12:30pm 22.6 20.7 9.0 42 7.3 S 9 19 5 10 1016.9 1016.8 0.0
28/12:00pm 22.1 18.9 8.6 42 7.1 SSE 15 20 8 11 1017.4 1017.3 0.0
28/11:30am 21.5 17.7 7.7 41 7.2 SW 17 26 9 14 1017.8 1017.7 0.0
28/11:00am 21.2 17.5 7.8 42 6.9 SSE 17 30 9 16 1017.9 1017.9 0.0
28/10:30am 20.4 17.0 7.7 44 6.5 S 15 22 8 12 1018.0 1018.0 0.0
28/10:00am 19.5 15.1 7.3 45 6.2 SSW 20 26 11 14 1018.5 1018.5 0.0
28/09:30am 19.5 16.2 8.2 48 5.8 S 15 22 8 12 1018.7 1018.7 0.0
28/09:00am 18.8 17.1 8.5 51 5.3 SW 7 13 4 7 1018.6 1018.6 0.0
28/08:30am 17.1 16.2 9.3 60 4.1 NNW 4 7 2 4 1018.4 1018.4 0.0
28/08:00am 15.2 14.6 8.9 66 3.2 NW 2 7 1 4 1018.4 1018.4 0.0
28/07:30am 13.9 13.6 8.7 71 2.6 CALM 0 7 0 4 1018.3 1018.3 0.0
28/07:00am 10.6 9.3 7.8 83 1.3 E 4 9 2 5 1018.0 1018.0 0.0
28/06:30am 8.9 6.8 6.0 82 1.3 N 6 9 3 5 1017.9 1017.9 0.0
28/06:00am 10.1 6.5 6.6 79 1.6 SW 15 19 8 10 1017.4 1017.3 0.0
28/05:30am 7.2 4.2 6.0 92 0.5 WSW 11 15 6 8 1017.5 1017.4 0.0
28/05:00am 6.7 5.4 5.8 94 0.4 W 2 9 1 5 1017.5 1017.4 0.0
28/04:30am 6.0 4.9 5.1 94 0.4 CALM 0 0 0 0 1017.3 1017.2 0.0
28/04:00am 6.4 4.7 5.7 95 0.3 SW 4 7 2 4 1017.2 1017.1 0.0
28/03:30am 6.2 5.2 5.5 95 0.3 CALM 0 6 0 3 1017.2 1017.1 0.0
28/03:00am 5.9 4.8 5.0 94 0.4 CALM 0 0 0 0 1017.4 1017.3 0.0
28/02:30am 6.1 4.6 5.2 94 0.4 N 2 7 1 4 1017.4 1017.3 0.0
28/02:00am 6.2 5.1 5.3 94 0.4 CALM 0 0 0 0 1017.3 1017.2 0.0
28/01:30am 6.4 5.0 5.5 94 0.4 E 2 7 1 4 1017.6 1017.5 0.0
28/01:00am 6.9 6.0 6.0 94 0.4 CALM 0 0 0 0 1017.8 1017.7 0.0
28/12:30am 7.1 6.2 6.0 93 0.5 CALM 0 0 0 0 1017.6 1017.5 0.0
28/12:00am 7.1 6.2 6.0 93 0.5 SW 0 0 0 0 1017.5 1017.4 0.0
 
Date/Time
EST
Temp
°C
App
Temp
°C
Dew
Point
Rel
Hum
%
Delta-T
°C
Wind Press
QNH
hPa
Press
MSL
hPa
Rain
since 9 am
mm
Dir
 
Spd
km/h
Gust
km/h
Spd
kts
Gust
kts
27/11:30pm 7.5 6.7 6.4 93 0.5 ESE 0 0 0 0 1017.4 1017.3 0.0
27/11:00pm 7.8 7.0 6.6 92 0.6 CALM 0 0 0 0 1017.5 1017.4 0.0
27/10:30pm 8.2 7.5 7.0 92 0.6 CALM 0 0 0 0 1017.5 1017.4 0.0
27/10:00pm 8.6 8.0 7.4 92 0.6 CALM 0 0 0 0 1017.3 1017.2 0.0
27/09:30pm 8.9 8.3 7.5 91 0.7 CALM 0 0 0 0 1017.2 1017.1 0.0
27/09:00pm 9.4 8.9 7.8 90 0.8 CALM 0 0 0 0 1017.0 1016.9 0.0
27/08:30pm 9.9 9.5 8.3 90 0.8 E 0 0 0 0 1016.7 1016.6 0.0
27/08:00pm 10.4 10.0 8.3 87 1.0 CALM 0 0 0 0 1016.3 1016.2 0.0
27/07:30pm 10.8 10.3 7.9 82 1.4 CALM 0 0 0 0 1015.9 1015.8 0.0
27/07:00pm 12.6 12.4 8.9 78 1.9 CALM 0 0 0 0 1015.6 1015.5 0.0
27/06:30pm 13.9 11.7 5.3 56 4.0 S 6 7 3 4 1015.0 1014.9 0.0
27/06:00pm 18.0 16.3 7.4 50 5.3 S 6 9 3 5 1014.5 1014.4 0.0
27/05:30pm 21.5 18.0 1.2 26 9.3 S 9 13 5 7 1014.1 1014.0 0.0
27/05:00pm 23.4 20.0 1.7 24 10.2 SSW 9 17 5 9 1013.8 1013.7 0.0
27/04:30pm 24.2 19.8 0.5 21 10.9 SW 13 26 7 14 1013.4 1013.3 0.0
27/04:00pm 24.8 20.4 0.3 20 11.3 SW 13 17 7 9 1013.1 1013.0 0.0
27/03:30pm 25.0 20.1 -0.2 19 11.6 SW 15 22 8 12 1013.0 1012.9 0.0
27/03:00pm 25.1 20.1 1.3 21 11.2 SW 17 24 9 13 1013.1 1013.0 0.0
27/02:30pm 25.4 20.8 1.5 21 11.4 SW 15 24 8 13 1013.3 1013.2 0.0
27/02:00pm 25.5 21.4 2.2 22 11.2 WSW 13 24 7 13 1013.5 1013.4 0.0
27/01:30pm 24.7 20.3 4.5 27 10.1 SW 17 32 9 17 1013.9 1013.8 0.0
27/01:00pm 24.2 20.9 8.2 36 8.5 SSW 15 22 8 12 1014.3 1014.2 0.0
27/12:30pm 23.7 22.2 10.7 44 7.2 SSW 9 22 5 12 1014.6 1014.5 0.0
27/12:00pm 23.2 22.1 11.9 49 6.4 SW 9 19 5 10 1015.0 1014.9 0.0
27/11:30am 23.2 21.5 11.3 47 6.7 NW 11 22 6 12 1015.6 1015.5 0.0
27/11:00am 22.9 21.4 13.1 54 5.6 WNW 13 20 7 11 1015.9 1015.8 0.0
27/10:30am 21.1 20.9 13.5 62 4.4 WNW 7 17 4 9 1016.4 1016.3 0.0
27/10:00am 20.0 19.8 13.7 67 3.6 WNW 7 13 4 7 1016.9 1016.8 0.0
27/09:30am 18.6 18.2 13.0 70 3.2 SW 7 11 4 6 1017.1 1017.0 0.0
27/09:00am 17.5 19.1 14.8 84 1.6 CALM 0 0 0 0 1017.2 1017.1 0.0
27/08:30am 14.8 15.6 13.8 94 0.6 SSE 2 6 1 3 1017.4 1017.3 0.0
27/08:00am 13.3 14.0 12.2 93 0.6 CALM 0 0 0 0 1017.0 1016.9 0.0
27/07:30am 11.5 11.7 10.6 94 0.5 CALM 0 0 0 0 1016.6 1016.5 0.0
27/07:00am 9.6 9.3 8.7 94 0.4 CALM 0 0 0 0 1016.2 1016.1 0.0
27/06:30am 8.3 7.7 7.4 94 0.4 CALM 0 0 0 0 1016.0 1015.9 0.0
27/06:00am 8.4 7.8 7.5 94 0.4 CALM 0 0 0 0 1015.7 1015.6 0.0
27/05:30am 8.4 7.8 7.6 95 0.4 CALM 0 0 0 0 1015.5 1015.4 0.0
27/05:00am 9.6 9.4 9.0 96 0.3 CALM 0 0 0 0 1015.4 1015.3 0.0
27/04:30am 9.4 9.1 8.8 96 0.3 CALM 0 6 0 3 1015.3 1015.2 0.0
27/04:25am 9.4 9.1 8.8 96 0.3 CALM 0 0 0 0 1015.3 1015.2 0.0
27/04:04am 9.7 9.1 9.1 96 0.3 N 2 9 1 5 1015.4 1015.3 0.0
27/04:00am 9.7 9.1 9.1 96 0.3 ENE 2 6 1 3 1015.3 1015.2 0.0
27/03:30am 9.4 9.1 8.8 96 0.3 CALM 0 0 0 0 1015.3 1015.2 0.0
27/03:00am 9.6 9.4 9.0 96 0.3 CALM 0 0 0 0 1015.4 1015.3 0.0
27/02:30am 9.3 9.0 8.5 95 0.4 CALM 0 0 0 0 1015.4 1015.3 0.0
27/02:16am 8.9 8.4 8.0 94 0.4 CALM 0 0 0 0 1015.5 1015.4 0.0
27/02:00am 8.9 8.5 8.1 95 0.4 CALM 0 0 0 0 1015.5 1015.4 0.0
27/01:30am 9.0 8.6 8.1 94 0.4 CALM 0 0 0 0 1015.6 1015.5 0.0
27/01:24am 9.1 8.7 8.2 94 0.4 CALM 0 0 0 0 1015.8 1015.7 0.0
27/01:00am 9.1 8.6 8.0 93 0.5 CALM 0 0 0 0 1016.1 1016.0 0.0
27/12:30am 9.9 9.3 9.1 95 0.4 SW 2 9 1 5 1016.4 1016.3 0.0
27/12:00am 9.7 9.4 8.8 94 0.4 CALM 0 0 0 0 1016.5 1016.4 0.0
 
Date/Time
EST
Temp
°C
App
Temp
°C
Dew
Point
Rel
Hum
%
Delta-T
°C
Wind Press
QNH
hPa
Press
MSL
hPa
Rain
since 9 am
mm
Dir
 
Spd
km/h
Gust
km/h
Spd
kts
Gust
kts
26/11:30pm 10.1 9.9 9.2 94 0.4 CALM 0 0 0 0 1016.6 1016.5 0.0
26/11:00pm 10.1 9.9 9.0 93 0.5 CALM 0 0 0 0 1016.7 1016.6 0.0
26/10:30pm 10.7 10.6 9.6 93 0.6 CALM 0 0 0 0 1016.7 1016.6 0.0
26/10:00pm 10.6 10.5 9.4 92 0.6 CALM 0 0 0 0 1016.9 1016.8 0.0
26/09:30pm 11.7 11.9 10.6 93 0.6 CALM 0 0 0 0 1016.8 1016.7 0.0
26/09:00pm 11.7 11.8 10.3 91 0.7 CALM 0 0 0 0 1016.8 1016.7 0.0
26/08:30pm 12.4 12.7 10.8 90 0.8 CALM 0 0 0 0 1016.7 1016.6 0.0
26/08:00pm 12.8 13.2 11.2 90 0.8 CALM 0 0 0 0 1016.4 1016.3 0.0
26/07:30pm 13.5 12.8 11.4 87 1.1 WSW 6 9 3 5 1016.1 1016.0 0.0
26/07:00pm 15.0 15.8 12.7 86 1.3 CALM 0 0 0 0 1015.9 1015.8 0.0
26/06:30pm 16.4 17.4 13.1 81 1.8 CALM 0 0 0 0 1015.5 1015.4 0.0
26/06:00pm 18.0 17.6 13.1 73 2.8 N 7 9 4 5 1015.2 1015.1 0.0
26/05:30pm 19.5 18.6 12.5 64 3.9 N 9 17 5 9 1015.0 1014.9 0.0
26/05:00pm 21.3 19.7 11.6 54 5.4 NNE 11 19 6 10 1014.6 1014.5 0.0
26/04:30pm 22.3 20.0 10.5 47 6.5 ENE 13 17 7 9 1014.4 1014.3 0.0
26/04:00pm 22.7 20.5 10.8 47 6.6 ENE 13 19 7 10 1014.2 1014.1 0.0
26/03:30pm 23.2 20.6 10.6 45 7.0 ENE 15 24 8 13 1014.2 1014.1 0.0
26/03:00pm 23.6 21.3 10.3 43 7.3 NE 13 19 7 10 1014.1 1014.0 0.0
26/02:30pm 22.9 20.4 9.7 43 7.2 ESE 13 20 7 11 1014.3 1014.2 0.0
26/02:00pm 24.0 21.9 11.0 44 7.3 SE 13 20 7 11 1014.6 1014.5 0.0
26/01:30pm 24.4 23.1 9.9 40 8.0 ENE 7 13 4 7 1014.9 1014.8 0.0
26/01:00pm 23.4 21.2 9.4 41 7.6 SE 11 20 6 11 1015.3 1015.2 0.0
26/12:30pm 24.5 22.5 10.0 40 8.0 SSE 11 20 6 11 1015.8 1015.7 0.0
26/12:00pm 23.6 21.2 8.5 38 8.0 S 11 28 6 15 1016.5 1016.4 0.0
26/11:30am 23.2 22.4 12.8 52 6.0 S 9 17 5 9 1017.1 1017.0 0.0
26/11:00am 22.5 21.7 13.0 55 5.4 SSE 9 20 5 11 1017.7 1017.6 0.0
26/10:30am 21.5 20.9 12.4 56 5.1 SE 7 13 4 7 1018.0 1018.0 0.0
26/10:00am 21.3 20.9 14.2 64 4.1 ESE 9 15 5 8 1018.3 1018.3 0.0
26/09:30am 20.4 19.2 14.1 67 3.7 SSE 13 17 7 9 1018.5 1018.5 0.0
26/09:00am 19.4 18.5 13.6 69 3.3 SSE 11 19 6 10 1018.6 1018.6 0.0
26/08:30am 18.2 19.7 14.7 80 2.0 CALM 0 7 0 4 1018.6 1018.6 0.0
26/08:00am 15.7 15.7 13.5 87 1.2 SSE 6 7 3 4 1018.4 1018.4 0.0
26/07:30am 13.9 14.8 12.8 93 0.6 CALM 0 0 0 0 1018.2 1018.2 0.0
26/07:00am 10.5 10.5 9.7 95 0.4 CALM 0 0 0 0 1017.9 1017.9 0.0
26/06:30am 8.8 8.3 8.0 95 0.4 CALM 0 0 0 0 1017.5 1017.4 0.0
26/06:26am 8.7 8.2 7.9 95 0.4 CALM 0 0 0 0 1017.5 1017.4 0.0
26/06:00am 8.5 7.9 7.6 94 0.4 CALM 0 0 0 0 1017.3 1017.2 0.0
26/05:54am 8.7 8.2 7.8 94 0.4 CALM 0 0 0 0 1017.4 1017.3 0.0
26/05:31am 8.7 8.2 7.8 94 0.4 CALM 0 0 0 0 1017.2 1017.1 0.0
26/05:30am 8.7 8.2 7.8 94 0.4 CALM 0 0 0 0 1017.1 1017.0 0.0
26/05:00am 8.7 8.2 7.8 94 0.4 CALM 0 0 0 0 1016.8 1016.7 0.0
26/04:30am 9.6 9.3 8.8 95 0.4 CALM 0 0 0 0 1016.8 1016.7 0.0
26/04:19am 9.6 9.3 8.8 95 0.4 CALM 0 0 0 0 1016.8 1016.7 0.0
26/04:00am 9.4 9.1 8.5 94 0.4 CALM 0 0 0 0 1016.7 1016.6 0.0
26/03:52am 9.4 9.1 8.5 94 0.4 CALM 0 0 0 0 1016.7 1016.6 0.0
26/03:48am 9.2 8.8 8.3 94 0.4 CALM 0 0 0 0 1016.7 1016.6 0.0
26/03:34am 9.0 8.5 7.9 93 0.5 CALM 0 0 0 0 1016.7 1016.6 0.0
26/03:30am 9.2 8.8 8.1 93 0.5 CALM 0 0 0 0 1016.7 1016.6 0.0
26/03:00am 9.5 9.1 8.4 93 0.5 CALM 0 0 0 0 1017.0 1016.9 0.0
26/02:30am 9.7 9.4 8.6 93 0.5 CALM 0 0 0 0 1017.1 1017.0 0.0
26/02:00am 9.7 9.4 8.5 92 0.6 CALM 0 0 0 0 1017.5 1017.4 0.0
26/01:30am 10.3 10.1 9.2 93 0.5 CALM 0 0 0 0 1017.7 1017.6 0.0
26/01:00am 10.6 10.5 9.5 93 0.6 CALM 0 0 0 0 1018.0 1018.0 0.0
26/12:30am 10.7 10.7 9.8 94 0.5 CALM 0 0 0 0 1018.3 1018.3 0.0
26/12:00am 10.8 10.8 9.7 93 0.6 CALM 0 0 0 0 1018.4 1018.4 0.0
 
Date/Time
EST
Temp
°C
App
Temp
°C
Dew
Point
Rel
Hum
%
Delta-T
°C
Wind Press
QNH
hPa
Press
MSL
hPa
Rain
since 9 am
mm
Dir
 
Spd
km/h
Gust
km/h
Spd
kts
Gust
kts
25/11:30pm 11.1 11.2 10.0 93 0.6 CALM 0 0 0 0 1018.5 1018.5 0.0
25/11:00pm 11.2 11.3 10.1 93 0.6 CALM 0 0 0 0 1018.6 1018.6 0.0
25/10:30pm 11.4 11.5 10.3 93 0.6 CALM 0 0 0 0 1018.7 1018.7 0.0
25/10:00pm 11.8 12.0 10.7 93 0.6 CALM 0 0 0 0 1018.7 1018.7 0.0
25/09:30pm 11.7 11.9 10.4 92 0.7 CALM 0 0 0 0 1018.7 1018.7 0.0
25/09:00pm 12.4 12.4 11.1 92 0.7 WSW 2 7 1 4 1018.8 1018.8 0.0
25/08:30pm 12.7 13.1 11.3 91 0.7 CALM 0 0 0 0 1018.7 1018.7 0.0
25/08:00pm 13.1 13.6 11.5 90 0.8 CALM 0 0 0 0 1018.6 1018.6 0.0
25/07:30pm 13.8 14.4 12.0 89 1.0 CALM 0 0 0 0 1018.5 1018.5 0.0
25/07:00pm 14.6 15.3 12.1 85 1.4 CALM 0 0 0 0 1018.0 1018.0 0.0
25/06:30pm 15.5 16.1 11.9 79 2.0 CALM 0 0 0 0 1017.7 1017.6 0.0
25/06:00pm 17.4 17.3 10.8 65 3.5 ESE 2 7 1 4 1017.3 1017.2 0.0
25/05:30pm 20.3 19.1 10.4 53 5.4 ENE 7 7 4 4 1017.0 1016.9 0.0
25/05:00pm 21.7 20.5 10.2 48 6.3 ENE 7 11 4 6 1016.7 1016.6 0.0

Other Formats:

Comma delimited format used in spreadsheet applications
http://www.bom.gov.au/fwo/IDQ60801/IDQ60801.94370.axf

JavaScript Object Notation format (JSON) in row-major order
http://www.bom.gov.au/fwo/IDQ60801/IDQ60801.94370.json